createdAt,value
2022-11-05T00:03:20.170Z,16.618729096989966
2022-11-05T00:11:00.440Z,14.65551839464883
2022-11-05T00:18:23.100Z,12.274247491638796
2022-11-05T00:26:23.898Z,11.341137123745819
2022-11-05T00:34:02.149Z,12.464882943143813
2022-11-05T00:41:34.491Z,11.73913043478261
2022-11-05T00:55:41.759Z,10.003344481605351
2022-11-05T01:07:38.155Z,10.03010033444816
2022-11-05T01:15:13.086Z,10.749163879598662
2022-11-05T01:25:41.213Z,9.635451505016722
2022-11-05T01:33:33.034Z,9.394648829431437
2022-11-05T01:43:17.676Z,8.635451505016722
2022-11-05T01:51:33.970Z,11.321070234113712
2022-11-05T02:03:41.752Z,9.481605351170568
2022-11-05T02:11:29.026Z,9.548494983277592
2022-11-05T02:19:35.679Z,9.765886287625419
2022-11-05T02:27:47.568Z,9.123745819397993
2022-11-05T02:43:58.918Z,9.321070234113712
2022-11-05T02:52:34.180Z,9.070234113712374
2022-11-05T03:02:19.857Z,9.501672240802675
2022-11-05T03:16:58.549Z,8.953177257525084
2022-11-05T03:24:56.406Z,8.939799331103679
2022-11-05T03:33:25.186Z,8.357859531772576
2022-11-05T03:41:18.937Z,8.34448160535117
2022-11-05T03:49:06.741Z,8.394648829431437
2022-11-05T03:56:54.067Z,8.010033444816054
2022-11-05T04:04:42.879Z,7.585284280936455
2022-11-05T04:12:36.557Z,6.896321070234114
2022-11-05T04:20:24.061Z,6.8561872909699
2022-11-05T04:30:36.146Z,7.839464882943144
2022-11-05T04:52:59.130Z,8.511705685618729
2022-11-05T05:01:02.786Z,7.501672240802676
2022-11-05T05:08:58.501Z,8.237458193979933
2022-11-05T05:17:08.633Z,7.438127090301004
2022-11-05T05:30:56.141Z,9.408026755852843
2022-11-05T05:55:23.505Z,9.0
2022-11-05T06:08:27.396Z,9.946488294314381
2022-11-05T06:16:08.198Z,9.715719063545151
2022-11-05T06:28:17.133Z,10.494983277591974
2022-11-05T06:36:17.222Z,12.013377926421406
2022-11-05T06:43:50.913Z,11.695652173913043
2022-11-05T06:53:08.351Z,12.765886287625419
2022-11-05T07:09:33.644Z,12.923076923076923
2022-11-05T07:17:56.214Z,18.88628762541806
2022-11-05T07:26:21.345Z,16.903010033444815
2022-11-05T07:34:28.992Z,21.190635451505017
2022-11-05T07:48:06.672Z,14.511705685618729
2022-11-05T07:57:15.202Z,14.809364548494983
2022-11-05T08:05:41.077Z,15.010033444816054
2022-11-05T08:13:42.971Z,14.354515050167224
2022-11-05T08:23:16.377Z,11.464882943143813
2022-11-05T08:36:23.476Z,11.872909698996656
2022-11-05T08:44:52.593Z,12.775919732441471
2022-11-05T08:52:54.431Z,11.210702341137123
2022-11-05T09:01:01.797Z,10.755852842809364
2022-11-05T09:08:34.961Z,10.481605351170568
2022-11-05T09:15:53.662Z,9.688963210702342
2022-11-05T09:23:24.829Z,10.063545150501673
2022-11-05T09:30:46.082Z,10.361204013377927
2022-11-05T09:38:40.496Z,8.668896321070234
2022-11-05T09:46:22.853Z,9.210702341137123
2022-11-05T09:53:45.794Z,8.779264214046822
2022-11-05T10:01:14.173Z,9.444816053511706
2022-11-05T10:08:50.536Z,9.809364548494983
2022-11-05T10:16:23.849Z,9.408026755852843
2022-11-05T10:36:39.776Z,14.224080267558529
2022-11-05T10:49:25.417Z,9.759197324414716
2022-11-05T10:56:58.467Z,9.444816053511706
2022-11-05T11:04:06.067Z,9.926421404682275
2022-11-05T11:12:08.808Z,11.03010033444816
2022-11-05T11:23:21.716Z,9.57190635451505
2022-11-05T11:34:53.439Z,9.364548494983278
2022-11-05T11:51:26.868Z,9.94314381270903
2022-11-05T12:09:38.392Z,8.789297658862877
2022-11-05T12:26:48.984Z,7.20066889632107
2022-11-05T12:38:58.463Z,6.538461538461538
2022-11-05T12:55:59.581Z,7.719063545150502
2022-11-05T13:31:47.678Z,6.8996655518394645
2022-11-05T13:47:52.909Z,8.849498327759198
2022-11-05T13:57:18.853Z,6.6120401337792645
2022-11-05T14:08:03.146Z,10.725752508361204
2022-11-05T14:17:53.363Z,10.006688963210703
2022-11-05T14:28:16.651Z,9.408026755852843
2022-11-05T14:37:44.065Z,11.264214046822742
2022-11-05T14:49:15.564Z,13.270903010033445
2022-11-05T14:57:53.318Z,13.143812709030101
2022-11-05T15:05:54.688Z,12.889632107023411
2022-11-05T15:14:01.625Z,15.59866220735786
2022-11-05T15:22:34.526Z,13.819397993311037
2022-11-05T15:37:57.294Z,14.866220735785953
2022-11-05T15:45:38.164Z,13.518394648829432
2022-11-05T15:54:28.566Z,13.013377926421406
2022-11-05T16:02:36.152Z,12.966555183946488
2022-11-05T16:14:13.248Z,13.822742474916389
2022-11-05T16:32:07.165Z,12.735785953177258
2022-11-05T16:40:27.103Z,11.77257525083612
2022-11-05T17:10:19.941Z,10.732441471571907
2022-11-05T17:28:43.045Z,15.02675585284281
2022-11-05T17:43:41.047Z,21.25083612040134
2022-11-05T17:53:30.940Z,22.040133779264213
2022-11-05T18:19:16.058Z,34.080267558528426
2022-11-05T18:28:00.226Z,18.79933110367893
2022-11-05T18:40:03.143Z,19.558528428093645
2022-11-05T18:48:55.790Z,19.006688963210703
2022-11-05T18:56:52.986Z,12.842809364548495
2022-11-05T19:05:30.535Z,19.505016722408026
2022-11-05T19:15:05.105Z,40.50501672240803
2022-11-05T19:32:56.981Z,63.40468227424749
2022-11-05T19:44:46.190Z,76.9933110367893
2022-11-05T19:55:41.307Z,70.73578595317726
2022-11-05T20:23:00.036Z,25.0
2022-11-05T20:33:26.712Z,22.959866220735787
2022-11-05T20:42:47.486Z,21.451505016722408
2022-11-05T21:00:11.572Z,22.588628762541806
2022-11-05T21:12:41.122Z,31.34448160535117
2022-11-05T21:21:41.573Z,25.892976588628763
2022-11-05T21:33:30.959Z,23.652173913043477
2022-11-05T21:42:07.820Z,21.528428093645484
2022-11-05T21:51:12.463Z,20.695652173913043
2022-11-05T21:59:21.433Z,18.93979933110368
2022-11-05T22:09:36.186Z,18.899665551839465
2022-11-05T22:18:43.383Z,19.50836120401338
2022-11-05T22:27:47.811Z,16.785953177257525
2022-11-05T22:38:21.887Z,16.74916387959866
2022-11-05T22:47:09.260Z,15.939799331103679
2022-11-05T22:55:24.072Z,15.367892976588628
2022-11-05T23:11:11.527Z,14.939799331103679
2022-11-05T23:24:35.610Z,13.996655518394649
2022-11-05T23:32:47.903Z,13.351170568561873
2022-11-05T23:44:30.874Z,12.595317725752508
2022-11-05T23:56:13.071Z,11.959866220735785
